sensor_id;sensor_type;location;lat;lon;timestamp;P1;durP1;ratioP1;P2;durP2;ratioP2
28174;SDS011;59417;44.788;10.334;2023-04-01T00:01:04;16.80;;;12.20;;
28174;SDS011;59417;44.788;10.334;2023-04-01T00:03:31;23.85;;;14.68;;
28174;SDS011;59417;44.788;10.334;2023-04-01T00:05:58;24.98;;;14.20;;
28174;SDS011;59417;44.788;10.334;2023-04-01T00:08:25;25.00;;;13.43;;
28174;SDS011;59417;44.788;10.334;2023-04-01T00:10:51;21.75;;;12.77;;
28174;SDS011;59417;44.788;10.334;2023-04-01T00:13:18;16.02;;;12.57;;
28174;SDS011;59417;44.788;10.334;2023-04-01T00:15:44;18.85;;;10.70;;
28174;SDS011;59417;44.788;10.334;2023-04-01T00:18:10;16.23;;;10.68;;
28174;SDS011;59417;44.788;10.334;2023-04-01T00:20:36;15.20;;;9.75;;
28174;SDS011;59417;44.788;10.334;2023-04-01T00:23:02;15.30;;;9.57;;
28174;SDS011;59417;44.788;10.334;2023-04-01T00:25:28;16.50;;;10.23;;
28174;SDS011;59417;44.788;10.334;2023-04-01T00:27:53;20.95;;;12.15;;
28174;SDS011;59417;44.788;10.334;2023-04-01T00:30:19;18.08;;;11.77;;
28174;SDS011;59417;44.788;10.334;2023-04-01T00:32:45;16.60;;;12.48;;
28174;SDS011;59417;44.788;10.334;2023-04-01T00:35:11;16.42;;;12.50;;
28174;SDS011;59417;44.788;10.334;2023-04-01T00:37:37;18.98;;;11.98;;
28174;SDS011;59417;44.788;10.334;2023-04-01T00:40:05;18.40;;;12.43;;
28174;SDS011;59417;44.788;10.334;2023-04-01T00:42:32;20.90;;;11.07;;
28174;SDS011;59417;44.788;10.334;2023-04-01T00:44:58;16.88;;;11.05;;
28174;SDS011;59417;44.788;10.334;2023-04-01T00:47:50;14.50;;;10.13;;
28174;SDS011;59417;44.788;10.334;2023-04-01T00:50:16;15.98;;;9.60;;
28174;SDS011;59417;44.788;10.334;2023-04-01T00:52:41;14.77;;;10.23;;
28174;SDS011;59417;44.788;10.334;2023-04-01T00:55:07;16.38;;;10.30;;
28174;SDS011;59417;44.788;10.334;2023-04-01T00:57:38;16.90;;;9.77;;
28174;SDS011;59417;44.788;10.334;2023-04-01T01:00:08;15.80;;;9.98;;
28174;SDS011;59417;44.788;10.334;2023-04-01T01:05:02;13.93;;;8.45;;
28174;SDS011;59417;44.788;10.334;2023-04-01T01:10:08;10.35;;;7.38;;
28174;SDS011;59417;44.788;10.334;2023-04-01T01:15:46;9.35;;;7.10;;
28174;SDS011;59417;44.788;10.334;2023-04-01T01:18:19;11.50;;;6.38;;
28174;SDS011;59417;44.788;10.334;2023-04-01T01:23:57;5.45;;;3.53;;
28174;SDS011;59417;44.788;10.334;2023-04-01T01:26:49;5.32;;;3.53;;
28174;SDS011;59417;44.788;10.334;2023-04-01T01:32:09;3.85;;;2.53;;
28174;SDS011;59417;44.788;10.334;2023-04-01T01:37:42;7.28;;;2.72;;
28174;SDS011;59417;44.788;10.334;2023-04-01T01:40:10;3.90;;;3.05;;
28174;SDS011;59417;44.788;10.334;2023-04-01T01:42:39;5.38;;;3.45;;
28174;SDS011;59417;44.788;10.334;2023-04-01T01:45:08;4.22;;;2.85;;
28174;SDS011;59417;44.788;10.334;2023-04-01T01:47:37;7.07;;;3.60;;
28174;SDS011;59417;44.788;10.334;2023-04-01T01:50:06;3.80;;;3.00;;
28174;SDS011;59417;44.788;10.334;2023-04-01T01:52:33;4.18;;;2.85;;
28174;SDS011;59417;44.788;10.334;2023-04-01T01:54:59;3.85;;;2.85;;
28174;SDS011;59417;44.788;10.334;2023-04-01T01:57:34;5.75;;;3.30;;
28174;SDS011;59417;44.788;10.334;2023-04-01T02:00:07;5.70;;;3.38;;
28174;SDS011;59417;44.788;10.334;2023-04-01T02:02:44;6.47;;;2.80;;
28174;SDS011;59417;44.788;10.334;2023-04-01T02:05:14;6.25;;;3.30;;
28174;SDS011;59417;44.788;10.334;2023-04-01T02:07:45;4.85;;;3.28;;
28174;SDS011;59417;44.788;10.334;2023-04-01T02:10:16;3.38;;;2.72;;
28174;SDS011;59417;44.788;10.334;2023-04-01T02:12:44;4.00;;;2.97;;
28174;SDS011;59417;44.788;10.334;2023-04-01T02:15:12;4.00;;;2.58;;
28174;SDS011;59417;44.788;10.334;2023-04-01T02:17:44;3.73;;;2.97;;
28174;SDS011;59417;44.788;10.334;2023-04-01T02:20:13;4.05;;;2.80;;
28174;SDS011;59417;44.788;10.334;2023-04-01T02:23:16;5.25;;;2.95;;
28174;SDS011;59417;44.788;10.334;2023-04-01T02:25:35;3.72;;;3.08;;
28174;SDS011;59417;44.788;10.334;2023-04-01T02:28:04;4.45;;;2.60;;
28174;SDS011;59417;44.788;10.334;2023-04-01T02:30:32;3.97;;;3.15;;
28174;SDS011;59417;44.788;10.334;2023-04-01T02:33:01;7.45;;;5.65;;
28174;SDS011;59417;44.788;10.334;2023-04-01T02:35:29;16.05;;;10.55;;
28174;SDS011;59417;44.788;10.334;2023-04-01T02:37:55;17.92;;;12.35;;
28174;SDS011;59417;44.788;10.334;2023-04-01T02:40:21;17.50;;;10.77;;
28174;SDS011;59417;44.788;10.334;2023-04-01T02:42:47;21.38;;;14.77;;
28174;SDS011;59417;44.788;10.334;2023-04-01T02:45:13;23.45;;;16.98;;
28174;SDS011;59417;44.788;10.334;2023-04-01T02:47:40;19.75;;;14.48;;
28174;SDS011;59417;44.788;10.334;2023-04-01T02:50:06;23.25;;;16.67;;
28174;SDS011;59417;44.788;10.334;2023-04-01T02:52:33;24.95;;;16.45;;
28174;SDS011;59417;44.788;10.334;2023-04-01T02:55:00;25.13;;;19.67;;
28174;SDS011;59417;44.788;10.334;2023-04-01T02:57:26;24.23;;;19.30;;
28174;SDS011;59417;44.788;10.334;2023-04-01T02:59:52;29.67;;;20.02;;
28174;SDS011;59417;44.788;10.334;2023-04-01T03:02:17;24.40;;;18.77;;
28174;SDS011;59417;44.788;10.334;2023-04-01T03:04:43;28.05;;;20.08;;
28174;SDS011;59417;44.788;10.334;2023-04-01T03:07:09;27.98;;;20.50;;
28174;SDS011;59417;44.788;10.334;2023-04-01T03:09:36;28.27;;;20.75;;
28174;SDS011;59417;44.788;10.334;2023-04-01T03:12:02;33.55;;;21.90;;
28174;SDS011;59417;44.788;10.334;2023-04-01T03:14:31;29.35;;;21.63;;
28174;SDS011;59417;44.788;10.334;2023-04-01T03:16:57;31.33;;;21.27;;
28174;SDS011;59417;44.788;10.334;2023-04-01T03:19:23;36.05;;;23.77;;
28174;SDS011;59417;44.788;10.334;2023-04-01T03:21:49;30.63;;;23.27;;
28174;SDS011;59417;44.788;10.334;2023-04-01T03:24:15;33.63;;;23.88;;
28174;SDS011;59417;44.788;10.334;2023-04-01T03:26:40;33.45;;;23.33;;
28174;SDS011;59417;44.788;10.334;2023-04-01T03:29:06;28.83;;;22.85;;
28174;SDS011;59417;44.788;10.334;2023-04-01T03:31:32;36.20;;;24.60;;
28174;SDS011;59417;44.788;10.334;2023-04-01T03:33:57;32.63;;;24.00;;
28174;SDS011;59417;44.788;10.334;2023-04-01T03:36:23;35.80;;;24.83;;
28174;SDS011;59417;44.788;10.334;2023-04-01T03:38:49;36.20;;;23.55;;
28174;SDS011;59417;44.788;10.334;2023-04-01T03:41:21;29.83;;;23.27;;
28174;SDS011;59417;44.788;10.334;2023-04-01T03:43:47;38.20;;;24.90;;
28174;SDS011;59417;44.788;10.334;2023-04-01T03:46:22;34.15;;;25.52;;
28174;SDS011;59417;44.788;10.334;2023-04-01T03:48:47;38.55;;;25.85;;
28174;SDS011;59417;44.788;10.334;2023-04-01T03:51:13;39.80;;;25.27;;
28174;SDS011;59417;44.788;10.334;2023-04-01T03:53:40;35.60;;;24.55;;
28174;SDS011;59417;44.788;10.334;2023-04-01T03:56:05;35.90;;;24.65;;
28174;SDS011;59417;44.788;10.334;2023-04-01T03:58:34;36.80;;;25.25;;
28174;SDS011;59417;44.788;10.334;2023-04-01T04:01:02;40.20;;;26.38;;
28174;SDS011;59417;44.788;10.334;2023-04-01T04:03:30;36.10;;;23.33;;
28174;SDS011;59417;44.788;10.334;2023-04-01T04:05:56;39.35;;;25.52;;
28174;SDS011;59417;44.788;10.334;2023-04-01T04:08:22;37.83;;;26.35;;
28174;SDS011;59417;44.788;10.334;2023-04-01T04:10:54;34.60;;;24.88;;
28174;SDS011;59417;44.788;10.334;2023-04-01T04:13:21;34.35;;;24.15;;
28174;SDS011;59417;44.788;10.334;2023-04-01T04:15:53;36.17;;;26.35;;
28174;SDS011;59417;44.788;10.334;2023-04-01T04:18:19;36.08;;;24.63;;
28174;SDS011;59417;44.788;10.334;2023-04-01T04:20:45;31.92;;;24.33;;
28174;SDS011;59417;44.788;10.334;2023-04-01T04:23:16;37.60;;;26.55;;
28174;SDS011;59417;44.788;10.334;2023-04-01T04:25:53;41.60;;;25.20;;
28174;SDS011;59417;44.788;10.334;2023-04-01T04:28:29;37.70;;;24.33;;
28174;SDS011;59417;44.788;10.334;2023-04-01T04:30:56;38.72;;;26.65;;
28174;SDS011;59417;44.788;10.334;2023-04-01T04:33:23;33.67;;;25.13;;
28174;SDS011;59417;44.788;10.334;2023-04-01T04:35:49;33.75;;;24.35;;
28174;SDS011;59417;44.788;10.334;2023-04-01T04:38:16;37.05;;;25.75;;
28174;SDS011;59417;44.788;10.334;2023-04-01T04:40:42;37.38;;;25.13;;
28174;SDS011;59417;44.788;10.334;2023-04-01T04:43:12;33.33;;;25.33;;
28174;SDS011;59417;44.788;10.334;2023-04-01T04:48:04;43.60;;;25.13;;
28174;SDS011;59417;44.788;10.334;2023-04-01T04:50:32;38.72;;;25.00;;
28174;SDS011;59417;44.788;10.334;2023-04-01T04:52:57;31.52;;;23.77;;
28174;SDS011;59417;44.788;10.334;2023-04-01T04:55:23;36.70;;;25.35;;
28174;SDS011;59417;44.788;10.334;2023-04-01T04:58:05;38.10;;;24.95;;
28174;SDS011;59417;44.788;10.334;2023-04-01T05:00:32;31.35;;;24.25;;
28174;SDS011;59417;44.788;10.334;2023-04-01T05:03:00;39.50;;;25.52;;
28174;SDS011;59417;44.788;10.334;2023-04-01T05:05:25;34.05;;;24.02;;
28174;SDS011;59417;44.788;10.334;2023-04-01T05:07:51;32.85;;;23.67;;
28174;SDS011;59417;44.788;10.334;2023-04-01T05:10:18;31.52;;;23.70;;
28174;SDS011;59417;44.788;10.334;2023-04-01T05:12:45;37.45;;;25.42;;
28174;SDS011;59417;44.788;10.334;2023-04-01T05:15:16;29.88;;;23.50;;
28174;SDS011;59417;44.788;10.334;2023-04-01T05:17:42;28.05;;;22.02;;
28174;SDS011;59417;44.788;10.334;2023-04-01T05:20:09;31.25;;;23.67;;
28174;SDS011;59417;44.788;10.334;2023-04-01T05:22:36;31.55;;;21.33;;
28174;SDS011;59417;44.788;10.334;2023-04-01T05:25:03;33.55;;;21.08;;
28174;SDS011;59417;44.788;10.334;2023-04-01T05:27:29;29.33;;;21.08;;
28174;SDS011;59417;44.788;10.334;2023-04-01T05:29:55;29.15;;;20.73;;
28174;SDS011;59417;44.788;10.334;2023-04-01T05:32:39;30.35;;;21.85;;
28174;SDS011;59417;44.788;10.334;2023-04-01T05:35:05;34.22;;;21.83;;
28174;SDS011;59417;44.788;10.334;2023-04-01T05:37:33;31.27;;;22.27;;
28174;SDS011;59417;44.788;10.334;2023-04-01T05:40:00;27.58;;;20.73;;
28174;SDS011;59417;44.788;10.334;2023-04-01T05:42:28;30.73;;;22.30;;
28174;SDS011;59417;44.788;10.334;2023-04-01T05:44:54;36.88;;;22.55;;
28174;SDS011;59417;44.788;10.334;2023-04-01T05:47:59;28.20;;;20.27;;
28174;SDS011;59417;44.788;10.334;2023-04-01T05:50:27;33.10;;;22.23;;
28174;SDS011;59417;44.788;10.334;2023-04-01T05:52:53;28.40;;;21.05;;
28174;SDS011;59417;44.788;10.334;2023-04-01T05:55:19;31.00;;;21.10;;
28174;SDS011;59417;44.788;10.334;2023-04-01T05:57:45;34.95;;;23.33;;
28174;SDS011;59417;44.788;10.334;2023-04-01T06:00:13;30.63;;;21.98;;
28174;SDS011;59417;44.788;10.334;2023-04-01T06:02:40;32.67;;;22.25;;
28174;SDS011;59417;44.788;10.334;2023-04-01T06:05:18;29.38;;;21.27;;
28174;SDS011;59417;44.788;10.334;2023-04-01T06:07:46;34.63;;;20.80;;
28174;SDS011;59417;44.788;10.334;2023-04-01T06:10:13;33.58;;;20.17;;
28174;SDS011;59417;44.788;10.334;2023-04-01T06:21:01;31.00;;;20.77;;
28174;SDS011;59417;44.788;10.334;2023-04-01T06:23:37;23.40;;;19.25;;
28174;SDS011;59417;44.788;10.334;2023-04-01T06:34:35;13.60;;;8.88;;
28174;SDS011;59417;44.788;10.334;2023-04-01T06:37:37;10.95;;;7.65;;
28174;SDS011;59417;44.788;10.334;2023-04-01T06:46:43;10.88;;;7.32;;
28174;SDS011;59417;44.788;10.334;2023-04-01T06:52:55;5.50;;;3.65;;
28174;SDS011;59417;44.788;10.334;2023-04-01T07:01:20;7.15;;;4.30;;
28174;SDS011;59417;44.788;10.334;2023-04-01T07:04:05;6.82;;;4.20;;
28174;SDS011;59417;44.788;10.334;2023-04-01T07:06:44;4.95;;;3.95;;
28174;SDS011;59417;44.788;10.334;2023-04-01T07:09:18;5.43;;;3.78;;
28174;SDS011;59417;44.788;10.334;2023-04-01T07:12:10;9.30;;;4.38;;
28174;SDS011;59417;44.788;10.334;2023-04-01T07:15:26;7.78;;;4.03;;
28174;SDS011;59417;44.788;10.334;2023-04-01T07:18:10;6.87;;;4.57;;
28174;SDS011;59417;44.788;10.334;2023-04-01T07:20:41;8.77;;;4.80;;
28174;SDS011;59417;44.788;10.334;2023-04-01T07:23:15;6.05;;;4.40;;
28174;SDS011;59417;44.788;10.334;2023-04-01T07:26:17;5.70;;;5.07;;
28174;SDS011;59417;44.788;10.334;2023-04-01T07:29:09;7.97;;;4.85;;
28174;SDS011;59417;44.788;10.334;2023-04-01T07:38:01;9.50;;;3.35;;
28174;SDS011;59417;44.788;10.334;2023-04-01T08:05:49;5.75;;;5.03;;
28174;SDS011;59417;44.788;10.334;2023-04-01T08:19:56;7.88;;;5.28;;
28174;SDS011;59417;44.788;10.334;2023-04-01T08:22:53;7.00;;;4.75;;
28174;SDS011;59417;44.788;10.334;2023-04-01T08:25:29;7.55;;;4.47;;
28174;SDS011;59417;44.788;10.334;2023-04-01T08:28:13;8.93;;;4.78;;
28174;SDS011;59417;44.788;10.334;2023-04-01T08:30:50;6.30;;;4.40;;
28174;SDS011;59417;44.788;10.334;2023-04-01T08:33:24;5.75;;;4.43;;
28174;SDS011;59417;44.788;10.334;2023-04-01T08:36:03;6.47;;;4.05;;
28174;SDS011;59417;44.788;10.334;2023-04-01T08:44:11;8.45;;;5.38;;
28174;SDS011;59417;44.788;10.334;2023-04-01T08:53:06;7.35;;;5.07;;
28174;SDS011;59417;44.788;10.334;2023-04-01T08:55:56;6.82;;;4.70;;
28174;SDS011;59417;44.788;10.334;2023-04-01T09:04:14;14.48;;;10.00;;
28174;SDS011;59417;44.788;10.334;2023-04-01T09:09:40;20.35;;;12.52;;
28174;SDS011;59417;44.788;10.334;2023-04-01T09:34:51;21.55;;;12.45;;
28174;SDS011;59417;44.788;10.334;2023-04-01T09:37:41;19.02;;;12.63;;
28174;SDS011;59417;44.788;10.334;2023-04-01T09:49:42;15.15;;;10.80;;
28174;SDS011;59417;44.788;10.334;2023-04-01T09:52:43;15.32;;;10.93;;
28174;SDS011;59417;44.788;10.334;2023-04-01T10:05:06;16.48;;;8.35;;
28174;SDS011;59417;44.788;10.334;2023-04-01T10:33:39;6.15;;;4.68;;
28174;SDS011;59417;44.788;10.334;2023-04-01T10:36:27;4.30;;;3.55;;
28174;SDS011;59417;44.788;10.334;2023-04-01T10:48:29;12.50;;;1.75;;
28174;SDS011;59417;44.788;10.334;2023-04-01T11:28:02;0.35;;;0.30;;
28174;SDS011;59417;44.788;10.334;2023-04-01T11:34:02;0.30;;;0.30;;
28174;SDS011;59417;44.788;10.334;2023-04-01T11:42:49;1.33;;;0.50;;
28174;SDS011;59417;44.788;10.334;2023-04-01T11:46:03;0.38;;;0.38;;
28174;SDS011;59417;44.788;10.334;2023-04-01T11:51:12;0.47;;;0.43;;
28174;SDS011;59417;44.788;10.334;2023-04-01T11:56:34;0.98;;;0.32;;
28174;SDS011;59417;44.788;10.334;2023-04-01T11:59:17;0.90;;;0.67;;
28174;SDS011;59417;44.788;10.334;2023-04-01T12:08:02;0.70;;;0.40;;
28174;SDS011;59417;44.788;10.334;2023-04-01T12:16:12;1.33;;;0.40;;
28174;SDS011;59417;44.788;10.334;2023-04-01T12:18:59;0.38;;;0.30;;
28174;SDS011;59417;44.788;10.334;2023-04-01T12:21:46;0.30;;;0.30;;
28174;SDS011;59417;44.788;10.334;2023-04-01T12:24:46;0.55;;;0.52;;
28174;SDS011;59417;44.788;10.334;2023-04-01T12:27:41;1.65;;;0.40;;
28174;SDS011;59417;44.788;10.334;2023-04-01T12:35:32;1.05;;;0.30;;
28174;SDS011;59417;44.788;10.334;2023-04-01T12:41:29;0.52;;;0.52;;
28174;SDS011;59417;44.788;10.334;2023-04-01T12:57:58;1.02;;;0.40;;
28174;SDS011;59417;44.788;10.334;2023-04-01T13:00:46;0.38;;;0.30;;
28174;SDS011;59417;44.788;10.334;2023-04-01T13:09:06;0.45;;;0.40;;
28174;SDS011;59417;44.788;10.334;2023-04-01T13:27:44;0.55;;;0.35;;
28174;SDS011;59417;44.788;10.334;2023-04-01T13:57:43;3.20;;;0.70;;
28174;SDS011;59417;44.788;10.334;2023-04-01T14:05:54;0.90;;;0.52;;
28174;SDS011;59417;44.788;10.334;2023-04-01T14:16:41;0.82;;;0.50;;
28174;SDS011;59417;44.788;10.334;2023-04-01T14:28:14;3.08;;;0.40;;
28174;SDS011;59417;44.788;10.334;2023-04-01T14:52:53;0.50;;;0.50;;
28174;SDS011;59417;44.788;10.334;2023-04-01T14:55:33;1.33;;;0.40;;
28174;SDS011;59417;44.788;10.334;2023-04-01T14:58:13;0.37;;;0.37;;
28174;SDS011;59417;44.788;10.334;2023-04-01T15:00:47;0.37;;;0.37;;
28174;SDS011;59417;44.788;10.334;2023-04-01T15:03:39;4.53;;;0.47;;
28174;SDS011;59417;44.788;10.334;2023-04-01T15:09:09;1.10;;;0.40;;
28174;SDS011;59417;44.788;10.334;2023-04-01T15:14:46;1.23;;;0.50;;
28174;SDS011;59417;44.788;10.334;2023-04-01T15:26:34;0.60;;;0.40;;
28174;SDS011;59417;44.788;10.334;2023-04-01T15:29:23;0.43;;;0.40;;
28174;SDS011;59417;44.788;10.334;2023-04-01T15:45:26;1.38;;;0.90;;
28174;SDS011;59417;44.788;10.334;2023-04-01T15:59:41;2.55;;;0.60;;
28174;SDS011;59417;44.788;10.334;2023-04-01T16:05:25;3.15;;;0.95;;
28174;SDS011;59417;44.788;10.334;2023-04-01T16:24:24;1.58;;;0.60;;
28174;SDS011;59417;44.788;10.334;2023-04-01T16:29:53;0.85;;;0.80;;
28174;SDS011;59417;44.788;10.334;2023-04-01T16:32:30;0.60;;;0.60;;
28174;SDS011;59417;44.788;10.334;2023-04-01T16:45:53;3.17;;;0.70;;
28174;SDS011;59417;44.788;10.334;2023-04-01T16:48:27;1.77;;;0.80;;
28174;SDS011;59417;44.788;10.334;2023-04-01T16:51:15;0.80;;;0.68;;
28174;SDS011;59417;44.788;10.334;2023-04-01T16:54:02;1.02;;;0.73;;
28174;SDS011;59417;44.788;10.334;2023-04-01T16:56:45;3.03;;;1.23;;
28174;SDS011;59417;44.788;10.334;2023-04-01T17:02:02;1.25;;;0.80;;
28174;SDS011;59417;44.788;10.334;2023-04-01T17:18:50;1.77;;;0.88;;
28174;SDS011;59417;44.788;10.334;2023-04-01T17:45:46;3.90;;;1.83;;
28174;SDS011;59417;44.788;10.334;2023-04-01T17:48:49;3.45;;;1.65;;
28174;SDS011;59417;44.788;10.334;2023-04-01T17:54:10;2.55;;;1.50;;
28174;SDS011;59417;44.788;10.334;2023-04-01T17:56:55;3.38;;;1.45;;
28174;SDS011;59417;44.788;10.334;2023-04-01T18:11:11;5.35;;;1.75;;
28174;SDS011;59417;44.788;10.334;2023-04-01T18:13:59;2.72;;;1.50;;
28174;SDS011;59417;44.788;10.334;2023-04-01T18:16:50;3.15;;;1.58;;
28174;SDS011;59417;44.788;10.334;2023-04-01T18:30:37;2.83;;;1.52;;
28174;SDS011;59417;44.788;10.334;2023-04-01T18:35:58;4.70;;;1.67;;
28174;SDS011;59417;44.788;10.334;2023-04-01T18:38:29;3.47;;;1.40;;
28174;SDS011;59417;44.788;10.334;2023-04-01T18:41:13;8.27;;;2.15;;
28174;SDS011;59417;44.788;10.334;2023-04-01T18:57:13;2.25;;;1.60;;
28174;SDS011;59417;44.788;10.334;2023-04-01T18:59:45;3.47;;;1.77;;
28174;SDS011;59417;44.788;10.334;2023-04-01T19:05:03;2.45;;;1.65;;
28174;SDS011;59417;44.788;10.334;2023-04-01T19:10:15;3.03;;;1.77;;
28174;SDS011;59417;44.788;10.334;2023-04-01T19:13:05;3.17;;;1.42;;
28174;SDS011;59417;44.788;10.334;2023-04-01T19:15:52;6.53;;;2.00;;
28174;SDS011;59417;44.788;10.334;2023-04-01T19:26:48;3.85;;;1.63;;
28174;SDS011;59417;44.788;10.334;2023-04-01T19:32:24;6.05;;;2.60;;
28174;SDS011;59417;44.788;10.334;2023-04-01T19:38:00;5.78;;;2.33;;
28174;SDS011;59417;44.788;10.334;2023-04-01T19:43:39;3.83;;;2.45;;
28174;SDS011;59417;44.788;10.334;2023-04-01T19:46:18;4.68;;;2.78;;
28174;SDS011;59417;44.788;10.334;2023-04-01T19:56:57;5.50;;;3.20;;
28174;SDS011;59417;44.788;10.334;2023-04-01T20:04:39;5.80;;;2.78;;
28174;SDS011;59417;44.788;10.334;2023-04-01T20:07:24;4.45;;;2.83;;
28174;SDS011;59417;44.788;10.334;2023-04-01T20:10:12;6.57;;;3.15;;
28174;SDS011;59417;44.788;10.334;2023-04-01T20:12:52;3.28;;;2.17;;
28174;SDS011;59417;44.788;10.334;2023-04-01T20:16:10;3.85;;;2.05;;
28174;SDS011;59417;44.788;10.334;2023-04-01T20:26:14;6.32;;;2.28;;
28174;SDS011;59417;44.788;10.334;2023-04-01T20:32:03;3.40;;;1.58;;
28174;SDS011;59417;44.788;10.334;2023-04-01T20:34:50;3.85;;;1.90;;
28174;SDS011;59417;44.788;10.334;2023-04-01T20:37:51;2.78;;;1.63;;
28174;SDS011;59417;44.788;10.334;2023-04-01T20:50:24;5.97;;;1.73;;
28174;SDS011;59417;44.788;10.334;2023-04-01T21:22:51;5.97;;;1.48;;
28174;SDS011;59417;44.788;10.334;2023-04-01T21:25:56;8.25;;;1.98;;
28174;SDS011;59417;44.788;10.334;2023-04-01T21:40:43;8.15;;;1.95;;
28174;SDS011;59417;44.788;10.334;2023-04-01T21:43:52;3.90;;;1.73;;
28174;SDS011;59417;44.788;10.334;2023-04-01T22:04:31;8.27;;;2.15;;
28174;SDS011;59417;44.788;10.334;2023-04-01T22:07:21;7.00;;;1.98;;
28174;SDS011;59417;44.788;10.334;2023-04-01T22:20:32;6.80;;;1.75;;
28174;SDS011;59417;44.788;10.334;2023-04-01T22:25:57;10.93;;;2.67;;
28174;SDS011;59417;44.788;10.334;2023-04-01T22:31:20;6.43;;;2.10;;
28174;SDS011;59417;44.788;10.334;2023-04-01T22:39:08;6.40;;;2.10;;
28174;SDS011;59417;44.788;10.334;2023-04-01T22:41:56;7.47;;;2.50;;
28174;SDS011;59417;44.788;10.334;2023-04-01T22:47:45;5.57;;;2.17;;
28174;SDS011;59417;44.788;10.334;2023-04-01T22:52:56;10.82;;;2.45;;
28174;SDS011;59417;44.788;10.334;2023-04-01T22:55:32;6.40;;;2.07;;
28174;SDS011;59417;44.788;10.334;2023-04-01T22:58:04;5.43;;;2.13;;
28174;SDS011;59417;44.788;10.334;2023-04-01T23:00:38;4.43;;;2.10;;
28174;SDS011;59417;44.788;10.334;2023-04-01T23:03:17;6.28;;;1.88;;
28174;SDS011;59417;44.788;10.334;2023-04-01T23:05:58;10.68;;;2.10;;
28174;SDS011;59417;44.788;10.334;2023-04-01T23:11:14;4.85;;;2.05;;
28174;SDS011;59417;44.788;10.334;2023-04-01T23:13:44;7.05;;;1.88;;
28174;SDS011;59417;44.788;10.334;2023-04-01T23:16:23;4.40;;;1.90;;
28174;SDS011;59417;44.788;10.334;2023-04-01T23:24:14;5.68;;;2.30;;
28174;SDS011;59417;44.788;10.334;2023-04-01T23:27:02;6.15;;;2.00;;
28174;SDS011;59417;44.788;10.334;2023-04-01T23:29:31;9.73;;;2.60;;
28174;SDS011;59417;44.788;10.334;2023-04-01T23:32:02;7.53;;;2.10;;
28174;SDS011;59417;44.788;10.334;2023-04-01T23:34:33;6.72;;;2.35;;
28174;SDS011;59417;44.788;10.334;2023-04-01T23:37:02;7.80;;;2.03;;
28174;SDS011;59417;44.788;10.334;2023-04-01T23:44:52;4.45;;;1.80;;
28174;SDS011;59417;44.788;10.334;2023-04-01T23:47:31;5.07;;;2.33;;
28174;SDS011;59417;44.788;10.334;2023-04-01T23:50:41;9.50;;;2.00;;
28174;SDS011;59417;44.788;10.334;2023-04-01T23:53:00;6.50;;;2.40;;
28174;SDS011;59417;44.788;10.334;2023-04-01T23:56:17;9.75;;;2.45;;
28174;SDS011;59417;44.788;10.334;2023-04-01T23:59:22;9.00;;;2.28;;
